createdAt,value
2017-12-22T00:02:18.734Z,13.60
2017-12-22T00:04:48.042Z,14.00
2017-12-22T00:07:18.111Z,14.40
2017-12-22T00:09:48.277Z,13.40
2017-12-22T00:12:18.399Z,15.10
2017-12-22T00:14:47.847Z,14.43
2017-12-22T00:17:16.900Z,13.57
2017-12-22T00:19:45.992Z,13.30
2017-12-22T00:22:15.613Z,13.03
2017-12-22T00:24:46.135Z,13.70
2017-12-22T00:27:14.814Z,13.07
2017-12-22T00:29:43.500Z,13.90
2017-12-22T00:32:13.336Z,13.40
2017-12-22T00:34:42.308Z,12.83
2017-12-22T00:37:11.583Z,13.70
2017-12-22T00:39:41.940Z,14.27
2017-12-22T00:42:10.821Z,12.80
2017-12-22T00:44:42.785Z,12.10
2017-12-22T00:47:13.521Z,17.60
2017-12-22T00:49:48.144Z,14.87
2017-12-22T00:52:18.353Z,14.40
2017-12-22T00:54:47.293Z,14.00
2017-12-22T00:57:17.688Z,14.77
2017-12-22T00:59:46.579Z,14.10
2017-12-22T01:02:15.482Z,14.53
2017-12-22T01:04:44.357Z,13.93
2017-12-22T01:07:13.201Z,14.27
2017-12-22T01:09:41.941Z,14.40
2017-12-22T01:12:10.633Z,14.33
2017-12-22T01:14:39.467Z,13.97
2017-12-22T01:17:14.653Z,13.60
2017-12-22T01:19:43.930Z,14.43
2017-12-22T01:22:13.355Z,13.90
2017-12-22T01:24:42.810Z,14.27
2017-12-22T01:27:11.567Z,15.50
2017-12-22T01:29:41.225Z,13.60
2017-12-22T01:32:10.761Z,15.13
2017-12-22T01:34:39.659Z,15.27
2017-12-22T01:37:08.336Z,15.50
2017-12-22T01:39:37.841Z,13.90
2017-12-22T01:42:06.526Z,14.80
2017-12-22T01:44:36.034Z,15.13
2017-12-22T01:47:04.719Z,15.00
2017-12-22T01:49:33.621Z,16.03
2017-12-22T01:52:02.295Z,16.50
2017-12-22T01:54:31.903Z,15.43
2017-12-22T01:57:01.003Z,14.40
2017-12-22T01:59:30.611Z,16.30
2017-12-22T02:01:59.503Z,15.30
2017-12-22T02:04:28.396Z,14.80
2017-12-22T02:06:58.106Z,15.47
2017-12-22T02:09:27.812Z,15.07
2017-12-22T02:11:56.920Z,15.80
2017-12-22T02:14:26.416Z,15.87
2017-12-22T02:16:56.640Z,16.10
2017-12-22T02:19:25.525Z,15.13
2017-12-22T02:21:54.252Z,15.23
2017-12-22T02:24:24.413Z,14.47
2017-12-22T02:26:53.128Z,14.87
2017-12-22T02:29:21.909Z,15.00
2017-12-22T02:31:50.870Z,16.10
2017-12-22T02:34:19.995Z,15.10
2017-12-22T02:36:48.896Z,16.13
2017-12-22T02:39:17.678Z,14.90
2017-12-22T02:41:46.468Z,15.80
2017-12-22T02:44:15.356Z,15.77
2017-12-22T02:46:44.253Z,15.27
2017-12-22T02:49:13.346Z,18.33
2017-12-22T02:51:42.029Z,14.70
2017-12-22T02:54:10.920Z,15.47
2017-12-22T02:56:39.919Z,14.67
2017-12-22T02:59:10.136Z,14.87
2017-12-22T03:01:39.026Z,17.00
2017-12-22T03:04:08.550Z,17.30
2017-12-22T03:06:37.319Z,15.23
2017-12-22T03:09:06.414Z,15.63
2017-12-22T03:11:36.231Z,16.87
2017-12-22T03:14:05.127Z,17.40
2017-12-22T03:16:34.644Z,18.37
2017-12-22T03:19:04.235Z,15.50
2017-12-22T03:21:33.842Z,16.10
2017-12-22T03:24:02.525Z,16.30
2017-12-22T03:26:32.142Z,15.83
2017-12-22T03:29:02.049Z,16.70
2017-12-22T03:31:32.212Z,16.77
2017-12-22T03:34:01.264Z,15.70
2017-12-22T03:36:30.462Z,16.60
2017-12-22T03:38:59.968Z,15.70
2017-12-22T03:41:28.860Z,15.43
2017-12-22T03:43:58.980Z,16.17
2017-12-22T03:46:27.767Z,16.67
2017-12-22T03:48:57.025Z,14.93
2017-12-22T03:51:25.702Z,15.37
2017-12-22T03:53:54.544Z,15.70
2017-12-22T03:56:23.334Z,15.50
2017-12-22T03:58:52.836Z,14.13
2017-12-22T04:01:21.435Z,14.43
2017-12-22T04:03:50.155Z,16.17
2017-12-22T04:06:18.950Z,17.07
2017-12-22T04:08:48.813Z,15.60
2017-12-22T04:11:17.497Z,15.60
2017-12-22T04:13:47.313Z,16.17
2017-12-22T04:16:16.204Z,16.40
2017-12-22T04:18:45.709Z,16.57
2017-12-22T04:21:14.496Z,14.83
2017-12-22T04:23:43.488Z,15.97
2017-12-22T04:26:12.275Z,16.00
2017-12-22T04:28:41.475Z,16.20
2017-12-22T04:31:10.936Z,14.00
2017-12-22T04:33:39.671Z,17.07
2017-12-22T04:36:08.458Z,16.00
2017-12-22T04:38:39.195Z,15.63
2017-12-22T04:41:07.874Z,15.47
2017-12-22T04:43:36.669Z,15.87
2017-12-22T04:46:05.861Z,16.87
2017-12-22T04:48:35.368Z,16.80
2017-12-22T04:51:04.200Z,16.10
2017-12-22T04:53:33.864Z,16.63
2017-12-22T04:56:03.780Z,16.43
2017-12-22T04:58:33.221Z,16.47
2017-12-22T05:01:03.405Z,16.60
2017-12-22T05:03:32.098Z,16.00
2017-12-22T05:06:00.878Z,16.30
2017-12-22T05:08:29.667Z,17.20
2017-12-22T05:10:58.875Z,18.53
2017-12-22T05:13:27.654Z,16.80
2017-12-22T05:15:56.452Z,15.60
2017-12-22T05:18:26.460Z,16.37
2017-12-22T05:20:55.351Z,18.63
2017-12-22T05:23:24.549Z,17.30
2017-12-22T05:25:53.339Z,18.30
2017-12-22T05:28:22.126Z,16.10
2017-12-22T05:30:50.819Z,16.90
2017-12-22T05:33:20.421Z,16.10
2017-12-22T05:35:49.107Z,15.13
2017-12-22T05:38:18.564Z,16.97
2017-12-22T05:40:47.299Z,16.90
2017-12-22T05:43:16.189Z,15.80
2017-12-22T05:45:44.877Z,15.90
2017-12-22T05:48:13.562Z,17.60
2017-12-22T05:50:42.353Z,16.47
2017-12-22T05:53:11.609Z,17.90
2017-12-22T05:55:41.053Z,16.90
2017-12-22T05:58:10.183Z,16.30
2017-12-22T06:00:38.940Z,16.60
2017-12-22T06:03:08.447Z,18.43
2017-12-22T06:05:38.359Z,18.30
2017-12-22T06:08:07.454Z,17.03
2017-12-22T06:10:37.676Z,17.80
2017-12-22T06:13:06.567Z,17.97
2017-12-22T06:15:36.426Z,18.57
2017-12-22T06:18:05.374Z,18.70
2017-12-22T06:20:34.675Z,19.47
2017-12-22T06:23:04.796Z,18.40
2017-12-22T06:25:34.198Z,18.37
2017-12-22T06:28:02.927Z,18.30
2017-12-22T06:30:32.083Z,19.33
2017-12-22T06:33:00.974Z,18.00
2017-12-22T06:35:29.658Z,18.77
2017-12-22T06:37:59.879Z,18.03
2017-12-22T06:40:28.976Z,17.20
2017-12-22T06:42:58.277Z,17.80
2017-12-22T06:45:26.963Z,19.13
2017-12-22T06:47:55.755Z,18.67
2017-12-22T06:50:24.643Z,20.70
2017-12-22T06:52:54.254Z,16.63
2017-12-22T06:55:23.858Z,19.10
2017-12-22T06:57:52.607Z,18.43
2017-12-22T07:00:21.335Z,17.23
2017-12-22T07:02:50.841Z,18.50
2017-12-22T07:05:20.140Z,20.10
2017-12-22T07:07:49.761Z,18.83
2017-12-22T07:10:19.261Z,18.93
2017-12-22T07:12:48.041Z,18.67
2017-12-22T07:15:16.799Z,19.40
2017-12-22T07:17:46.134Z,20.80
2017-12-22T07:20:15.635Z,20.60
2017-12-22T07:22:45.972Z,22.83
2017-12-22T07:25:14.821Z,20.13
2017-12-22T07:27:43.642Z,22.13
2017-12-22T07:30:12.838Z,20.13
2017-12-22T07:32:42.037Z,28.60
2017-12-22T07:35:11.643Z,23.03
2017-12-22T07:37:41.561Z,21.53
2017-12-22T07:40:11.521Z,21.47
2017-12-22T07:42:40.515Z,21.37
2017-12-22T07:45:10.484Z,22.97
2017-12-22T07:47:39.171Z,19.17
2017-12-22T07:50:08.992Z,21.20
2017-12-22T07:52:38.080Z,19.83
2017-12-22T07:55:07.932Z,20.03
2017-12-22T07:57:38.750Z,18.10
2017-12-22T08:00:08.747Z,20.43
2017-12-22T08:02:38.968Z,25.30
2017-12-22T08:05:08.678Z,20.97
2017-12-22T08:07:38.184Z,21.03
2017-12-22T08:10:07.793Z,22.20
2017-12-22T08:12:36.684Z,21.00
2017-12-22T08:15:06.190Z,21.57
2017-12-22T08:17:36.258Z,21.73
2017-12-22T08:20:06.224Z,20.83
2017-12-22T08:22:35.635Z,20.80
2017-12-22T08:25:05.341Z,22.30
2017-12-22T08:27:35.051Z,22.30
2017-12-22T08:30:04.142Z,22.63
2017-12-22T08:32:32.832Z,21.70
2017-12-22T08:35:02.961Z,22.87
2017-12-22T08:37:31.467Z,22.60
2017-12-22T08:40:01.345Z,21.73
2017-12-22T08:42:30.650Z,20.87
2017-12-22T08:44:59.845Z,21.30
2017-12-22T08:47:28.476Z,19.63
2017-12-22T08:49:58.852Z,19.13
2017-12-22T08:52:27.950Z,21.10
2017-12-22T08:54:56.738Z,21.13
2017-12-22T08:57:26.300Z,19.47
2017-12-22T08:59:55.647Z,17.70
2017-12-22T09:02:24.739Z,18.80
2017-12-22T09:04:54.863Z,20.70
2017-12-22T09:07:24.164Z,20.50
2017-12-22T09:09:53.053Z,21.20
2017-12-22T09:12:23.171Z,19.47
2017-12-22T09:14:52.574Z,20.50
2017-12-22T09:17:22.805Z,18.70
2017-12-22T09:19:52.099Z,19.40
2017-12-22T09:22:21.557Z,18.53
2017-12-22T09:24:51.127Z,19.33
2017-12-22T09:27:21.435Z,20.67
2017-12-22T09:29:50.126Z,19.40
2017-12-22T09:32:20.239Z,19.90
2017-12-22T09:34:50.499Z,21.83
2017-12-22T09:37:20.280Z,19.90
2017-12-22T09:39:49.375Z,21.27
2017-12-22T09:42:19.488Z,22.23
2017-12-22T09:44:49.409Z,20.60
2017-12-22T09:47:18.266Z,20.67
2017-12-22T09:49:48.210Z,20.60
2017-12-22T09:52:17.349Z,20.60
2017-12-22T09:54:46.199Z,20.13
2017-12-22T09:57:16.528Z,21.60
2017-12-22T09:59:46.640Z,21.60
2017-12-22T10:02:17.690Z,21.50
2017-12-22T10:04:47.295Z,20.63
2017-12-22T10:07:15.978Z,22.10
2017-12-22T10:09:44.637Z,23.20
2017-12-22T10:12:14.940Z,22.37
2017-12-22T10:14:44.011Z,21.03
2017-12-22T10:17:12.774Z,22.37
2017-12-22T10:19:41.971Z,20.30
2017-12-22T10:22:11.067Z,21.57
2017-12-22T10:24:40.691Z,23.80
2017-12-22T10:27:10.077Z,22.43
2017-12-22T10:29:39.273Z,20.90
2017-12-22T10:32:08.751Z,22.57
2017-12-22T10:34:38.909Z,20.90
2017-12-22T10:37:08.411Z,21.93
2017-12-22T10:39:38.014Z,21.40
2017-12-22T10:42:06.700Z,21.90
2017-12-22T10:44:36.307Z,21.17
2017-12-22T10:47:06.528Z,20.77
2017-12-22T10:49:36.207Z,20.97
2017-12-22T10:52:06.460Z,20.30
2017-12-22T10:54:36.583Z,20.77
2017-12-22T10:57:06.705Z,18.30
2017-12-22T10:59:36.512Z,18.50
2017-12-22T11:02:06.757Z,19.23
2017-12-22T11:04:35.831Z,18.70
2017-12-22T11:07:05.953Z,16.10
2017-12-22T11:09:35.458Z,16.53
2017-12-22T11:12:04.960Z,17.13
2017-12-22T11:14:34.886Z,16.17
2017-12-22T11:17:04.485Z,16.43
2017-12-22T11:19:35.627Z,16.67
2017-12-22T11:22:05.132Z,16.77
2017-12-22T11:24:35.055Z,18.00
2017-12-22T11:27:04.451Z,19.57
2017-12-22T11:29:33.969Z,19.63
2017-12-22T11:32:03.441Z,17.67
2017-12-22T11:34:32.844Z,17.03
2017-12-22T11:37:02.990Z,17.77
2017-12-22T11:39:32.200Z,18.33
2017-12-22T11:42:06.185Z,17.60
2017-12-22T11:44:41.740Z,19.83
2017-12-22T11:47:11.246Z,19.30
2017-12-22T11:49:41.162Z,19.83
2017-12-22T11:52:10.934Z,18.53
2017-12-22T11:54:40.898Z,17.70
2017-12-22T11:57:10.401Z,20.10
2017-12-22T11:59:40.721Z,18.27
2017-12-22T12:02:09.524Z,18.00
2017-12-22T12:04:38.398Z,18.10
2017-12-22T12:07:07.502Z,17.47
2017-12-22T12:09:36.999Z,17.07
2017-12-22T12:12:05.794Z,18.53
2017-12-22T12:14:34.988Z,18.50
2017-12-22T12:17:04.087Z,19.10
2017-12-22T12:19:34.049Z,18.83
2017-12-22T12:22:04.121Z,17.13
2017-12-22T12:24:34.134Z,19.40
2017-12-22T12:27:03.640Z,18.27
2017-12-22T12:29:33.971Z,19.77
2017-12-22T12:32:03.468Z,19.70
2017-12-22T12:34:33.701Z,19.03
2017-12-22T12:37:03.197Z,20.07
2017-12-22T12:39:33.315Z,18.90
2017-12-22T12:42:02.412Z,21.10
2017-12-22T12:44:31.209Z,20.53
2017-12-22T12:47:00.298Z,18.87
2017-12-22T12:49:29.497Z,20.57
2017-12-22T12:51:58.391Z,20.37
2017-12-22T12:54:28.198Z,20.43
2017-12-22T12:56:57.827Z,21.23
2017-12-22T12:59:27.690Z,19.67
2017-12-22T13:01:57.844Z,19.50
2017-12-22T13:04:27.962Z,19.50
2017-12-22T13:06:58.493Z,20.43
2017-12-22T13:09:27.791Z,20.20
2017-12-22T13:11:57.406Z,18.80
2017-12-22T13:14:27.423Z,19.93
2017-12-22T13:16:56.924Z,22.17
2017-12-22T13:19:26.019Z,20.27
2017-12-22T13:21:55.521Z,21.43
2017-12-22T13:24:25.846Z,19.90
2017-12-22T13:26:56.172Z,20.47
2017-12-22T13:29:26.404Z,23.77
2017-12-22T13:31:56.309Z,16.90
2017-12-22T13:34:25.153Z,15.93
2017-12-22T13:36:54.708Z,17.60
2017-12-22T13:39:24.194Z,16.00
2017-12-22T13:41:52.998Z,13.50
2017-12-22T13:44:22.912Z,14.17
2017-12-22T13:46:53.034Z,11.83
2017-12-22T13:49:22.139Z,13.70
2017-12-22T13:51:52.554Z,12.60
2017-12-22T13:54:21.869Z,12.00
2017-12-22T13:56:51.566Z,11.93
2017-12-22T13:59:20.425Z,13.73
2017-12-22T14:01:50.147Z,13.90
2017-12-22T14:04:19.059Z,14.93
2017-12-22T14:06:49.178Z,13.00
2017-12-22T14:09:18.485Z,11.33
2017-12-22T14:11:47.808Z,10.73
2017-12-22T14:14:18.001Z,12.70
2017-12-22T14:16:49.350Z,14.00
2017-12-22T14:19:19.678Z,12.70
2017-12-22T14:21:49.128Z,14.60
2017-12-22T14:24:19.490Z,41.10
2017-12-22T14:26:48.712Z,18.87
2017-12-22T14:29:17.603Z,12.40
2017-12-22T14:31:46.937Z,14.73
2017-12-22T14:34:16.342Z,21.13
2017-12-22T14:36:46.214Z,14.83
2017-12-22T14:39:16.249Z,12.60
2017-12-22T14:41:46.442Z,11.07
2017-12-22T14:44:16.546Z,10.93
2017-12-22T14:46:46.395Z,10.23
2017-12-22T14:49:16.661Z,13.20
2017-12-22T14:51:46.812Z,11.53
2017-12-22T14:54:16.033Z,12.60
2017-12-22T16:18:44.377Z,8.47
2017-12-22T16:21:14.679Z,9.80
2017-12-22T16:23:45.128Z,8.43
2017-12-22T16:26:15.448Z,9.03
2017-12-22T16:28:45.567Z,10.23
2017-12-22T16:31:15.480Z,8.63
2017-12-22T16:33:45.735Z,10.33
2017-12-22T16:36:16.549Z,8.80
2017-12-22T16:38:46.628Z,9.93
2017-12-22T16:41:15.864Z,8.87
2017-12-22T16:43:46.186Z,9.60
2017-12-22T16:46:16.101Z,14.30
2017-12-22T16:48:45.772Z,10.83
2017-12-22T16:51:15.982Z,8.43
2017-12-22T16:53:46.515Z,8.60
2017-12-22T16:56:16.588Z,6.97
2017-12-22T16:58:46.784Z,7.40
2017-12-22T17:01:16.877Z,12.07
2017-12-22T17:03:47.101Z,9.80
2017-12-22T17:06:17.243Z,8.20
2017-12-22T17:08:48.613Z,7.47
2017-12-22T17:11:18.208Z,18.00
2017-12-22T17:13:48.534Z,9.47
2017-12-22T17:16:18.065Z,8.60
2017-12-22T17:18:48.216Z,8.20
2017-12-22T17:21:18.127Z,8.67
2017-12-22T17:23:48.296Z,9.25
2017-12-22T17:26:17.803Z,9.07
2017-12-22T17:28:47.261Z,8.47
2017-12-22T17:31:16.811Z,8.17
2017-12-22T17:33:47.544Z,8.27
2017-12-22T17:36:16.845Z,8.67
2017-12-22T17:38:46.360Z,8.23
2017-12-22T17:41:15.859Z,8.37
2017-12-22T17:43:45.380Z,8.33
2017-12-22T17:46:15.280Z,9.07
2017-12-22T17:48:44.887Z,11.03
2017-12-22T17:51:14.594Z,8.20
2017-12-22T17:53:44.102Z,8.67
2017-12-22T17:56:14.220Z,9.43
2017-12-22T17:58:43.317Z,10.70
2017-12-22T18:01:12.310Z,10.63
2017-12-22T18:03:41.509Z,9.73
2017-12-22T18:06:11.427Z,10.50
2017-12-22T18:08:41.336Z,10.03
2017-12-22T18:11:11.048Z,10.30
2017-12-22T18:13:40.962Z,10.50
2017-12-22T18:16:10.775Z,10.20
2017-12-22T18:18:39.255Z,10.43
2017-12-22T18:21:08.368Z,9.50
2017-12-22T18:23:37.674Z,9.17
2017-12-22T18:26:07.102Z,11.30
2017-12-22T18:28:37.276Z,10.00
2017-12-22T18:31:07.578Z,8.00
2017-12-22T18:33:36.970Z,7.30
2017-12-22T18:36:07.228Z,7.10
2017-12-22T18:38:36.945Z,8.73
2017-12-22T18:41:07.263Z,6.80
2017-12-22T18:43:36.771Z,7.43
2017-12-22T18:46:06.888Z,6.87
2017-12-22T18:48:36.497Z,7.00
2017-12-22T18:51:06.005Z,5.87
2017-12-22T18:53:35.317Z,5.82
2017-12-22T18:56:05.624Z,5.60
2017-12-22T18:58:34.926Z,7.17
2017-12-22T19:01:04.891Z,6.50
2017-12-22T19:03:33.528Z,5.97
2017-12-22T19:06:02.420Z,7.50
2017-12-22T19:08:33.091Z,10.77
2017-12-22T19:11:03.337Z,10.60
2017-12-22T19:13:32.060Z,10.23
2017-12-22T19:16:01.773Z,11.57
2017-12-22T19:18:31.889Z,10.60
2017-12-22T19:21:02.019Z,9.60
2017-12-22T19:23:32.236Z,11.30
2017-12-22T19:26:01.843Z,13.93
2017-12-22T19:28:31.250Z,11.10
2017-12-22T19:31:00.442Z,10.90
2017-12-22T19:33:30.356Z,12.50
2017-12-22T19:36:00.434Z,10.47
2017-12-22T19:38:29.777Z,10.97
2017-12-22T19:41:00.104Z,9.80
2017-12-22T19:43:30.792Z,11.23
2017-12-22T19:46:00.962Z,10.67
2017-12-22T19:48:30.018Z,9.53
2017-12-22T19:50:59.352Z,10.33
2017-12-22T19:53:28.857Z,11.90
2017-12-22T19:55:59.738Z,16.20
2017-12-22T19:58:28.482Z,9.30
2017-12-22T20:00:58.456Z,12.73
2017-12-22T20:03:28.524Z,10.37
2017-12-22T20:05:57.922Z,12.77
2017-12-22T20:08:26.610Z,10.87
2017-12-22T20:10:57.102Z,12.87
2017-12-22T20:13:26.237Z,12.70
2017-12-22T20:15:55.340Z,11.60
2017-12-22T20:18:24.634Z,9.97
2017-12-22T20:20:54.280Z,10.57
2017-12-22T20:23:25.650Z,9.70
2017-12-22T20:25:56.392Z,9.87
2017-12-22T20:28:25.935Z,9.30
2017-12-22T20:30:55.333Z,10.73
2017-12-22T20:33:25.448Z,8.40
2017-12-22T20:35:55.670Z,11.70
2017-12-22T20:38:25.997Z,9.40
2017-12-22T20:40:56.446Z,12.07
2017-12-22T20:43:26.607Z,11.20
2017-12-22T20:45:56.056Z,9.27
2017-12-22T20:48:26.190Z,9.70
2017-12-22T20:50:55.018Z,10.10
2017-12-22T20:53:24.666Z,10.90
2017-12-22T20:55:53.455Z,9.20
2017-12-22T20:58:22.185Z,11.67
2017-12-22T21:00:51.144Z,10.30
2017-12-22T21:03:21.667Z,13.23
2017-12-22T21:05:51.188Z,10.70
2017-12-22T21:08:20.264Z,12.33
2017-12-22T21:10:49.159Z,14.50
2017-12-22T21:13:18.458Z,13.53
2017-12-22T21:15:50.422Z,12.93
2017-12-22T21:18:19.108Z,13.70
2017-12-22T21:20:49.136Z,11.30
2017-12-22T21:23:19.160Z,13.33
2017-12-22T21:25:48.961Z,13.13
2017-12-22T21:28:18.635Z,15.00
2017-12-22T21:30:48.376Z,14.53
2017-12-22T21:33:17.588Z,12.00
2017-12-22T21:35:46.469Z,12.40
2017-12-22T21:38:16.991Z,14.33
2017-12-22T21:40:46.092Z,15.03
2017-12-22T21:43:15.339Z,14.30
2017-12-22T21:45:44.078Z,14.97
2017-12-22T21:48:13.581Z,14.20
2017-12-22T21:50:42.371Z,13.53
2017-12-22T21:53:11.668Z,13.10
2017-12-22T21:55:41.174Z,12.80
2017-12-22T21:58:09.966Z,12.43
2017-12-22T22:00:39.572Z,11.57
2017-12-22T22:03:09.076Z,12.10
2017-12-22T22:05:39.333Z,14.80
2017-12-22T22:08:08.469Z,14.40
2017-12-22T22:10:37.804Z,17.30
2017-12-22T22:13:06.586Z,16.20
2017-12-22T22:15:36.501Z,14.70
2017-12-22T22:18:06.832Z,12.70
2017-12-22T22:20:36.946Z,12.70
2017-12-22T22:23:06.042Z,13.87
2017-12-22T22:25:35.250Z,11.77
2017-12-22T22:28:04.133Z,12.30
2017-12-22T22:30:33.341Z,11.10
2017-12-22T22:33:02.802Z,10.17
2017-12-22T22:35:31.732Z,14.50
2017-12-22T22:38:02.052Z,12.73
2017-12-22T22:40:31.702Z,13.90
2017-12-22T22:43:01.213Z,11.50
2017-12-22T22:45:30.360Z,11.17
2017-12-22T22:47:59.620Z,10.60
2017-12-22T22:50:29.891Z,12.60
2017-12-22T22:53:00.008Z,11.60
2017-12-22T22:55:29.204Z,11.20
2017-12-22T22:57:58.511Z,13.17
2017-12-22T23:00:27.400Z,12.10
2017-12-22T23:02:57.728Z,9.67
2017-12-22T23:05:27.634Z,11.07
2017-12-22T23:07:56.489Z,9.37
2017-12-22T23:10:26.776Z,9.80
2017-12-22T23:12:55.843Z,8.30
2017-12-22T23:15:25.303Z,9.67
2017-12-22T23:17:54.547Z,8.80
2017-12-22T23:20:23.858Z,9.10
2017-12-22T23:22:53.147Z,9.50
2017-12-22T23:25:22.468Z,10.23
2017-12-22T23:27:51.963Z,9.70
2017-12-22T23:30:20.842Z,14.40
2017-12-22T23:32:50.917Z,10.73
2017-12-22T23:35:20.880Z,9.33
2017-12-22T23:37:50.285Z,9.30
2017-12-22T23:40:19.381Z,10.20
2017-12-22T23:42:49.032Z,9.83
2017-12-22T23:45:18.496Z,9.80
2017-12-22T23:47:48.002Z,9.33
2017-12-22T23:50:17.884Z,11.33
2017-12-22T23:52:47.261Z,10.47
2017-12-22T23:55:16.932Z,10.17
2017-12-22T23:57:47.245Z,9.23
